createdAt,value
2023-01-30T00:01:58.195Z,2.65
2023-01-30T00:04:25.986Z,2.64
2023-01-30T00:06:53.432Z,2.62
2023-01-30T00:09:21.287Z,2.67
2023-01-30T00:11:48.706Z,2.65
2023-01-30T00:14:16.553Z,2.64
2023-01-30T00:16:44.120Z,2.66
2023-01-30T00:19:11.935Z,2.63
2023-01-30T00:21:39.547Z,2.63
2023-01-30T00:24:07.938Z,2.59
2023-01-30T00:26:35.448Z,2.52
2023-01-30T00:29:03.354Z,2.49
2023-01-30T00:31:31.510Z,2.49
2023-01-30T00:33:59.360Z,2.49
2023-01-30T00:36:26.939Z,2.47
2023-01-30T00:38:58.625Z,2.45
2023-01-30T00:41:46.302Z,2.51
2023-01-30T00:44:32.582Z,2.53
2023-01-30T00:47:06.264Z,2.60
2023-01-30T00:49:34.368Z,2.60
2023-01-30T00:52:02.427Z,2.62
2023-01-30T00:54:31.093Z,2.64
2023-01-30T00:56:59.550Z,2.61
2023-01-30T00:59:28.280Z,2.62
2023-01-30T01:01:55.967Z,2.61
2023-01-30T01:04:23.830Z,2.64
2023-01-30T01:06:51.290Z,2.67
2023-01-30T01:09:19.239Z,2.65
2023-01-30T01:11:46.781Z,2.67
2023-01-30T01:14:15.040Z,2.58
2023-01-30T01:16:42.700Z,2.64
2023-01-30T01:19:10.503Z,2.67
2023-01-30T01:21:38.023Z,2.67
2023-01-30T01:24:06.568Z,2.58
2023-01-30T01:26:34.425Z,2.59
2023-01-30T01:29:03.621Z,2.62
2023-01-30T01:31:31.770Z,2.60
2023-01-30T01:33:59.614Z,2.62
2023-01-30T01:36:52.156Z,2.64
2023-01-30T01:39:14.967Z,2.65
2023-01-30T01:41:42.929Z,2.61
2023-01-30T01:44:17.299Z,2.57
2023-01-30T01:46:57.961Z,2.59
2023-01-30T01:49:34.717Z,2.67
2023-01-30T01:52:15.876Z,2.55
2023-01-30T01:54:54.830Z,2.49
2023-01-30T01:57:54.220Z,2.44
2023-01-30T02:00:24.364Z,2.31
2023-01-30T02:03:01.844Z,2.28
2023-01-30T02:05:40.885Z,2.20
2023-01-30T02:08:19.193Z,2.19
2023-01-30T02:11:11.893Z,2.28
2023-01-30T02:13:39.599Z,2.35
2023-01-30T02:16:09.228Z,2.41
2023-01-30T02:18:42.066Z,2.47
2023-01-30T02:21:52.156Z,2.55
2023-01-30T02:24:51.609Z,2.59
2023-01-30T02:27:35.134Z,2.53
2023-01-30T02:30:22.441Z,2.49
2023-01-30T02:33:32.634Z,2.39
2023-01-30T02:36:24.952Z,2.22
2023-01-30T02:39:08.897Z,2.04
2023-01-30T02:41:57.887Z,2.12
2023-01-30T02:44:33.420Z,2.19
2023-01-30T02:47:10.114Z,2.13
2023-01-30T02:50:14.284Z,2.07
2023-01-30T02:52:42.613Z,2.12
2023-01-30T02:55:26.826Z,2.06
2023-01-30T02:57:56.084Z,2.05
2023-01-30T03:00:45.291Z,2.09
2023-01-30T03:03:24.418Z,2.01
2023-01-30T03:06:10.072Z,1.92
2023-01-30T03:09:07.819Z,1.91
2023-01-30T03:12:08.081Z,1.78
2023-01-30T03:15:05.301Z,1.84
2023-01-30T03:17:35.318Z,1.93
2023-01-30T03:20:04.358Z,2.02
2023-01-30T03:22:33.481Z,2.14
2023-01-30T03:25:01.197Z,2.29
2023-01-30T03:27:29.455Z,2.21
2023-01-30T03:29:57.957Z,2.22
2023-01-30T03:32:26.226Z,2.18
2023-01-30T03:34:53.703Z,2.18
2023-01-30T03:37:21.690Z,2.13
2023-01-30T03:39:49.653Z,2.04
2023-01-30T03:42:17.625Z,2.11
2023-01-30T03:44:45.080Z,2.05
2023-01-30T03:47:12.922Z,1.99
2023-01-30T03:49:40.789Z,1.94
2023-01-30T03:52:08.698Z,1.87
2023-01-30T03:54:36.258Z,1.85
2023-01-30T03:57:04.632Z,1.92
2023-01-30T03:59:32.360Z,2.03
2023-01-30T04:02:06.611Z,2.19
2023-01-30T04:04:34.859Z,2.22
2023-01-30T04:07:04.587Z,2.29
2023-01-30T04:09:33.652Z,2.35
2023-01-30T04:12:02.926Z,2.25
2023-01-30T04:14:35.877Z,2.29
2023-01-30T04:17:26.540Z,2.35
2023-01-30T04:20:29.085Z,2.40
2023-01-30T04:22:58.103Z,2.42
2023-01-30T04:25:27.547Z,2.39
2023-01-30T04:27:55.685Z,2.40
2023-01-30T04:30:27.663Z,2.43
2023-01-30T04:33:07.845Z,2.38
2023-01-30T04:35:35.526Z,2.33
2023-01-30T04:38:03.446Z,2.35
2023-01-30T04:40:31.076Z,2.29
2023-01-30T04:42:58.941Z,2.31
2023-01-30T04:46:01.591Z,2.20
2023-01-30T04:48:30.849Z,2.11
2023-01-30T04:51:00.879Z,2.02
2023-01-30T04:53:29.341Z,2.01
2023-01-30T04:55:57.828Z,2.07
2023-01-30T04:58:25.769Z,2.04
2023-01-30T05:00:53.763Z,2.05
2023-01-30T05:03:21.654Z,2.04
2023-01-30T05:05:49.271Z,2.09
2023-01-30T05:08:17.248Z,2.17
2023-01-30T05:10:44.799Z,2.27
2023-01-30T05:13:13.034Z,2.36
2023-01-30T05:15:40.910Z,2.44
2023-01-30T05:18:08.812Z,2.37
2023-01-30T05:20:36.332Z,2.23
2023-01-30T05:23:04.173Z,2.20
2023-01-30T05:25:31.930Z,2.13
2023-01-30T05:28:00.189Z,2.08
2023-01-30T05:30:27.769Z,2.16
2023-01-30T05:32:58.864Z,1.79
2023-01-30T05:35:26.311Z,1.72
2023-01-30T05:37:54.106Z,1.66
2023-01-30T05:40:21.531Z,1.65
2023-01-30T05:42:49.437Z,1.68
2023-01-30T05:45:17.341Z,1.83
2023-01-30T05:47:45.344Z,1.80
2023-01-30T05:50:12.894Z,1.89
2023-01-30T05:52:40.997Z,1.81
2023-01-30T05:55:09.223Z,1.75
2023-01-30T05:57:36.993Z,1.59
2023-01-30T06:00:06.493Z,1.48
2023-01-30T06:02:41.497Z,1.45
2023-01-30T06:05:09.529Z,1.58
2023-01-30T06:07:37.338Z,1.65
2023-01-30T06:10:05.280Z,1.73
2023-01-30T06:12:33.455Z,1.84
2023-01-30T06:15:00.982Z,1.98
2023-01-30T06:17:29.987Z,2.08
2023-01-30T06:19:57.594Z,2.05
2023-01-30T06:22:25.304Z,2.04
2023-01-30T06:24:52.848Z,2.04
2023-01-30T06:27:20.809Z,2.09
2023-01-30T06:29:48.275Z,1.99
2023-01-30T06:32:16.069Z,1.86
2023-01-30T06:34:43.590Z,1.78
2023-01-30T06:37:11.403Z,1.84
2023-01-30T06:39:38.987Z,1.87
2023-01-30T06:42:07.282Z,1.97
2023-01-30T06:44:34.753Z,2.06
2023-01-30T06:47:02.650Z,2.14
2023-01-30T06:49:30.339Z,2.20
2023-01-30T06:51:58.486Z,2.25
2023-01-30T06:54:26.058Z,2.32
2023-01-30T06:56:54.308Z,2.36
2023-01-30T06:59:21.857Z,2.39
2023-01-30T07:01:49.961Z,2.38
2023-01-30T07:04:17.623Z,2.30
2023-01-30T07:06:46.916Z,2.16
2023-01-30T07:09:14.615Z,2.15
2023-01-30T07:11:42.561Z,2.08
2023-01-30T07:14:10.472Z,2.08
2023-01-30T07:16:38.366Z,2.10
2023-01-30T07:19:05.844Z,2.11
2023-01-30T07:21:33.656Z,2.18
2023-01-30T07:24:01.202Z,2.26
2023-01-30T07:26:31.306Z,2.30
2023-01-30T07:28:59.183Z,2.37
2023-01-30T07:31:27.216Z,2.47
2023-01-30T07:33:54.802Z,2.54
2023-01-30T07:36:22.621Z,2.57
2023-01-30T07:38:50.026Z,2.65
2023-01-30T07:41:17.753Z,2.66
2023-01-30T07:43:45.274Z,2.70
2023-01-30T07:46:13.080Z,2.72
2023-01-30T07:48:40.542Z,2.76
2023-01-30T07:51:08.411Z,2.85
2023-01-30T07:53:35.837Z,2.93
2023-01-30T07:56:14.210Z,2.97
2023-01-30T07:58:41.865Z,2.95
2023-01-30T08:01:09.851Z,2.96
2023-01-30T08:03:37.393Z,2.97
2023-01-30T08:06:05.483Z,3.03
2023-01-30T08:08:33.013Z,3.06
2023-01-30T08:11:00.975Z,3.03
2023-01-30T08:13:28.363Z,3.09
2023-01-30T08:16:00.285Z,3.05
2023-01-30T08:18:33.521Z,3.07
2023-01-30T08:21:04.769Z,3.10
2023-01-30T08:23:34.033Z,3.11
2023-01-30T08:26:03.312Z,3.16
2023-01-30T08:28:31.540Z,3.17
2023-01-30T08:30:59.820Z,3.16
2023-01-30T08:33:27.797Z,3.15
2023-01-30T08:35:57.236Z,3.16
2023-01-30T08:38:24.805Z,3.18
2023-01-30T08:40:52.813Z,3.16
2023-01-30T08:43:20.665Z,3.21
2023-01-30T08:45:48.704Z,3.26
2023-01-30T08:48:16.257Z,3.23
2023-01-30T08:50:44.201Z,3.20
2023-01-30T08:53:11.907Z,3.26
2023-01-30T08:55:39.976Z,3.08
2023-01-30T08:58:07.642Z,3.04
2023-01-30T09:00:35.531Z,2.99
2023-01-30T09:03:03.163Z,2.99
2023-01-30T09:05:31.052Z,3.02
2023-01-30T09:07:58.785Z,3.05
2023-01-30T09:10:26.574Z,3.03
2023-01-30T09:12:54.001Z,3.02
2023-01-30T09:15:21.914Z,3.06
2023-01-30T09:17:49.562Z,3.05
2023-01-30T09:20:19.095Z,3.05
2023-01-30T09:22:47.103Z,3.12
2023-01-30T09:25:15.459Z,2.94
2023-01-30T09:27:44.604Z,2.93
2023-01-30T09:30:12.609Z,2.95
2023-01-30T09:32:40.273Z,2.95
2023-01-30T09:35:08.677Z,2.92
2023-01-30T09:37:36.255Z,2.86
2023-01-30T09:40:05.316Z,2.92
2023-01-30T09:43:00.226Z,2.94
2023-01-30T09:45:38.316Z,2.83
2023-01-30T09:48:32.792Z,2.75
2023-01-30T09:51:26.280Z,2.81
2023-01-30T09:54:16.909Z,2.92
2023-01-30T09:56:44.947Z,3.07
2023-01-30T09:59:34.698Z,3.00
2023-01-30T10:02:44.959Z,3.00
2023-01-30T10:05:13.236Z,3.10
2023-01-30T10:08:06.217Z,3.28
2023-01-30T10:11:09.621Z,3.35
2023-01-30T10:14:04.817Z,3.31
2023-01-30T10:16:44.360Z,3.40
2023-01-30T10:19:35.177Z,3.50
2023-01-30T10:22:28.447Z,3.62
2023-01-30T10:25:32.837Z,3.72
2023-01-30T10:28:21.090Z,3.75
2023-01-30T10:30:56.424Z,3.88
2023-01-30T10:33:40.815Z,3.98
2023-01-30T10:36:18.654Z,4.08
2023-01-30T10:38:54.924Z,4.18
2023-01-30T10:41:38.852Z,4.26
2023-01-30T10:44:13.217Z,4.39
2023-01-30T10:47:47.699Z,4.46
2023-01-30T10:50:26.947Z,4.53
2023-01-30T10:53:17.185Z,4.55
2023-01-30T10:55:48.790Z,4.58
2023-01-30T10:58:41.430Z,4.62
2023-01-30T11:01:47.830Z,4.64
2023-01-30T11:04:34.293Z,4.63
2023-01-30T11:07:03.125Z,4.66
2023-01-30T11:09:47.574Z,4.66
2023-01-30T11:12:15.866Z,4.68
2023-01-30T11:14:59.802Z,4.70
2023-01-30T11:17:45.864Z,4.76
2023-01-30T11:20:22.648Z,4.80
2023-01-30T11:23:08.307Z,4.96
2023-01-30T11:26:02.321Z,5.14
2023-01-30T11:28:44.199Z,5.24
2023-01-30T11:31:38.949Z,5.34
2023-01-30T11:34:17.955Z,5.48
2023-01-30T11:36:49.579Z,5.51
2023-01-30T11:39:20.499Z,5.54
2023-01-30T11:41:54.374Z,5.61
2023-01-30T11:44:40.872Z,5.75
2023-01-30T11:47:27.344Z,5.99
2023-01-30T11:50:12.051Z,6.20
2023-01-30T11:52:48.177Z,6.28
2023-01-30T11:55:19.757Z,6.44
2023-01-30T11:57:54.485Z,6.64
2023-01-30T12:00:38.411Z,6.84
2023-01-30T12:03:18.383Z,7.03
2023-01-30T12:05:47.497Z,7.16
2023-01-30T12:08:31.106Z,7.37
2023-01-30T12:11:03.393Z,7.58
2023-01-30T12:13:45.588Z,7.56
2023-01-30T12:16:39.667Z,7.45
2023-01-30T12:20:00.079Z,7.40
2023-01-30T12:22:59.023Z,7.52
2023-01-30T12:25:35.762Z,7.65
2023-01-30T12:28:33.844Z,8.00
2023-01-30T12:31:28.670Z,8.02
2023-01-30T12:33:56.748Z,8.21
2023-01-30T12:37:05.428Z,8.21
2023-01-30T12:39:50.487Z,8.30
2023-01-30T12:42:18.977Z,8.52
2023-01-30T12:45:19.599Z,8.88
2023-01-30T12:48:21.674Z,9.13
2023-01-30T12:51:33.464Z,9.47
2023-01-30T12:54:21.459Z,9.71
2023-01-30T12:57:15.141Z,9.95
2023-01-30T13:00:11.707Z,10.04
2023-01-30T13:03:15.333Z,9.72
2023-01-30T13:06:12.049Z,9.62
2023-01-30T13:09:05.396Z,9.22
2023-01-30T13:12:20.191Z,8.84
2023-01-30T13:15:14.341Z,8.52
2023-01-30T13:17:53.119Z,8.32
2023-01-30T13:21:06.783Z,8.11
2023-01-30T13:23:43.515Z,7.97
2023-01-30T13:26:32.205Z,7.97
2023-01-30T13:29:12.042Z,7.93
2023-01-30T13:31:50.882Z,7.77
2023-01-30T13:34:30.679Z,7.68
2023-01-30T13:37:13.170Z,7.67
2023-01-30T13:39:47.949Z,7.76
2023-01-30T13:42:50.694Z,7.95
2023-01-30T13:45:28.501Z,8.12
2023-01-30T13:48:14.632Z,8.27
2023-01-30T13:51:10.004Z,8.37
2023-01-30T13:54:03.391Z,8.43
2023-01-30T13:57:07.889Z,8.43
2023-01-30T14:00:10.712Z,8.45
2023-01-30T14:03:03.907Z,8.23
2023-01-30T14:05:54.226Z,8.15
2023-01-30T14:08:28.636Z,8.13
2023-01-30T14:10:57.531Z,8.10
2023-01-30T14:13:27.616Z,8.07
2023-01-30T14:16:04.745Z,8.07
2023-01-30T14:18:38.838Z,8.00
2023-01-30T14:21:25.030Z,7.85
2023-01-30T14:24:07.180Z,7.67
2023-01-30T14:26:50.616Z,7.46
2023-01-30T14:29:42.415Z,7.27
2023-01-30T14:32:13.785Z,7.05
2023-01-30T14:35:03.047Z,6.88
2023-01-30T14:37:39.382Z,6.61
2023-01-30T14:40:22.201Z,6.47
2023-01-30T14:43:16.855Z,6.34
2023-01-30T14:45:56.815Z,6.18
2023-01-30T14:49:01.074Z,6.13
2023-01-30T14:51:39.150Z,6.06
2023-01-30T14:54:13.309Z,5.93
2023-01-30T14:57:01.179Z,5.86
2023-01-30T15:00:15.064Z,5.78
2023-01-30T15:02:59.172Z,5.66
2023-01-30T15:05:39.103Z,5.59
2023-01-30T15:08:20.372Z,5.54
2023-01-30T15:11:16.943Z,5.45
2023-01-30T15:14:01.967Z,5.40
2023-01-30T15:17:20.252Z,5.33
2023-01-30T15:20:18.668Z,5.21
2023-01-30T15:23:08.684Z,5.08
2023-01-30T15:25:57.768Z,4.99
2023-01-30T15:28:51.695Z,4.93
2023-01-30T15:31:23.287Z,4.91
2023-01-30T15:33:54.475Z,4.85
2023-01-30T15:36:36.537Z,4.81
2023-01-30T15:39:21.723Z,4.78
2023-01-30T15:41:57.256Z,4.74
2023-01-30T15:44:53.503Z,4.71
2023-01-30T15:47:40.007Z,4.68
2023-01-30T15:50:10.344Z,4.65
2023-01-30T15:52:49.372Z,4.63
2023-01-30T15:55:31.350Z,4.61
2023-01-30T15:58:10.986Z,4.58
2023-01-30T16:00:49.114Z,4.57
2023-01-30T16:03:36.801Z,4.48
2023-01-30T16:06:05.201Z,4.45
2023-01-30T16:08:37.153Z,4.41
2023-01-30T16:11:04.885Z,4.39
2023-01-30T16:13:33.437Z,4.35
2023-01-30T16:16:09.065Z,4.31
2023-01-30T16:18:57.749Z,4.32
2023-01-30T16:21:40.229Z,4.31
2023-01-30T16:24:24.915Z,4.33
2023-01-30T16:27:01.266Z,4.30
2023-01-30T16:29:33.683Z,4.27
2023-01-30T16:32:01.716Z,4.28
2023-01-30T16:34:36.363Z,4.26
2023-01-30T16:37:20.986Z,4.24
2023-01-30T16:40:23.797Z,4.15
2023-01-30T16:43:04.101Z,4.10
2023-01-30T16:45:34.640Z,4.07
2023-01-30T16:48:16.891Z,4.04
2023-01-30T16:50:47.441Z,4.03
2023-01-30T16:53:24.271Z,4.04
2023-01-30T16:56:09.938Z,4.03
2023-01-30T16:58:38.882Z,4.04
2023-01-30T17:01:08.967Z,4.00
2023-01-30T17:03:48.724Z,3.98
2023-01-30T17:06:42.998Z,3.96
2023-01-30T17:09:44.680Z,3.99
2023-01-30T17:12:31.244Z,4.01
2023-01-30T17:15:13.681Z,3.99
2023-01-30T17:17:41.988Z,4.02
2023-01-30T17:20:13.242Z,4.08
2023-01-30T17:22:44.997Z,4.15
2023-01-30T17:25:31.185Z,4.17
2023-01-30T17:27:59.633Z,4.20
2023-01-30T17:30:27.131Z,4.22
2023-01-30T17:33:03.785Z,4.24
2023-01-30T17:38:57.589Z,4.34
2023-01-30T17:41:33.586Z,4.31
2023-01-30T17:44:01.424Z,4.34
2023-01-30T17:46:45.650Z,4.37
2023-01-30T17:49:20.033Z,4.41
2023-01-30T17:51:48.324Z,4.44
2023-01-30T17:54:16.984Z,4.39
2023-01-30T17:57:04.793Z,4.34
2023-01-30T17:59:33.501Z,4.29
2023-01-30T18:02:19.893Z,4.29
2023-01-30T18:04:51.710Z,4.32
2023-01-30T18:11:52.325Z,4.19
2023-01-30T18:14:26.457Z,4.11
2023-01-30T18:17:00.212Z,4.09
2023-01-30T18:19:31.768Z,4.10
2023-01-30T18:22:00.224Z,4.14
2023-01-30T18:24:28.201Z,4.17
2023-01-30T18:26:56.046Z,4.26
2023-01-30T18:30:25.843Z,4.33
2023-01-30T18:42:45.682Z,4.43
2023-01-30T18:45:42.471Z,4.38
2023-01-30T18:48:11.078Z,4.35
2023-01-30T18:50:39.647Z,4.35
2023-01-30T18:53:07.986Z,4.31
2023-01-30T18:55:36.335Z,4.25
2023-01-30T18:58:03.820Z,4.23
2023-01-30T19:00:31.797Z,4.25
2023-01-30T19:02:59.578Z,4.22
2023-01-30T19:05:27.607Z,4.19
2023-01-30T19:07:55.740Z,4.19
2023-01-30T19:10:23.552Z,4.19
2023-01-30T19:13:09.863Z,4.09
2023-01-30T19:15:38.898Z,4.04
2023-01-30T19:18:06.447Z,4.03
2023-01-30T19:20:34.555Z,4.02
2023-01-30T19:23:02.132Z,4.01
2023-01-30T19:25:30.072Z,4.01
2023-01-30T19:27:57.790Z,3.98
2023-01-30T19:30:25.639Z,3.98
2023-01-30T19:32:54.340Z,3.95
2023-01-30T19:35:22.445Z,4.02
2023-01-30T19:37:50.273Z,4.03
2023-01-30T19:40:18.657Z,4.05
2023-01-30T19:42:47.300Z,4.05
2023-01-30T19:45:15.200Z,4.05
2023-01-30T19:47:42.823Z,4.05
2023-01-30T19:50:11.561Z,4.04
2023-01-30T19:52:40.890Z,4.04
2023-01-30T19:55:09.284Z,4.05
2023-01-30T19:57:36.814Z,4.04
2023-01-30T20:00:06.347Z,4.08
2023-01-30T20:02:34.078Z,4.10
2023-01-30T20:05:02.718Z,4.10
2023-01-30T20:07:34.679Z,4.10
2023-01-30T20:10:03.268Z,4.05
2023-01-30T20:12:32.149Z,4.00
2023-01-30T20:14:59.929Z,3.94
2023-01-30T20:17:27.645Z,3.91
2023-01-30T20:19:55.633Z,3.91
2023-01-30T20:22:23.966Z,3.91
2023-01-30T20:24:52.709Z,3.89
2023-01-30T20:27:21.224Z,3.92
2023-01-30T20:29:49.715Z,3.88
2023-01-30T20:32:17.290Z,3.90
2023-01-30T20:34:45.558Z,3.89
2023-01-30T20:37:13.171Z,3.85
2023-01-30T20:39:41.084Z,3.82
2023-01-30T20:42:08.872Z,3.77
2023-01-30T20:44:37.379Z,3.73
2023-01-30T20:47:05.961Z,3.70
2023-01-30T20:49:34.725Z,3.71
2023-01-30T20:52:03.050Z,3.65
2023-01-30T20:54:31.949Z,3.62
2023-01-30T20:57:00.521Z,3.58
2023-01-30T20:59:28.720Z,3.62
2023-01-30T21:01:56.583Z,3.67
2023-01-30T21:04:24.782Z,3.71
2023-01-30T21:06:52.905Z,3.72
2023-01-30T21:09:23.382Z,3.79
2023-01-30T21:11:53.367Z,3.84
2023-01-30T21:14:23.331Z,3.85
2023-01-30T21:16:52.242Z,3.82
2023-01-30T21:19:20.364Z,3.84
2023-01-30T21:21:55.201Z,3.85
2023-01-30T21:24:28.477Z,3.92
2023-01-30T21:26:57.080Z,3.94
2023-01-30T21:29:28.284Z,3.91
2023-01-30T21:31:58.015Z,3.91
2023-01-30T21:34:26.369Z,3.92
2023-01-30T21:37:12.689Z,3.91
2023-01-30T21:39:59.348Z,3.90
2023-01-30T21:42:45.498Z,3.91
2023-01-30T21:45:13.615Z,3.87
2023-01-30T21:47:41.192Z,3.92
2023-01-30T21:50:10.337Z,3.93
2023-01-30T21:52:37.991Z,3.98
2023-01-30T21:55:06.337Z,3.99
2023-01-30T21:57:33.987Z,3.93
2023-01-30T22:00:01.885Z,3.95
2023-01-30T22:02:29.513Z,3.85
2023-01-30T22:04:57.361Z,3.78
2023-01-30T22:07:24.925Z,3.79
2023-01-30T22:09:52.841Z,3.84
2023-01-30T22:12:20.456Z,3.89
2023-01-30T22:15:10.681Z,3.88
2023-01-30T22:18:06.777Z,3.84
2023-01-30T22:20:35.345Z,3.77
2023-01-30T22:23:04.048Z,3.73
2023-01-30T22:25:32.598Z,3.44
2023-01-30T22:28:01.169Z,3.32
2023-01-30T22:30:29.615Z,3.22
2023-01-30T22:32:57.376Z,3.24
2023-01-30T22:35:25.740Z,3.26
2023-01-30T22:37:53.433Z,3.26
2023-01-30T22:40:21.423Z,3.19
2023-01-30T22:43:38.659Z,3.04
2023-01-30T22:46:08.901Z,2.91
2023-01-30T22:49:28.725Z,2.97
2023-01-30T22:51:58.318Z,2.98
2023-01-30T22:54:26.051Z,2.94
2023-01-30T22:57:03.076Z,3.00
2023-01-30T22:59:33.953Z,2.97
2023-01-30T23:02:04.226Z,2.98
2023-01-30T23:04:32.057Z,3.03
2023-01-30T23:07:00.092Z,2.98
2023-01-30T23:09:39.537Z,2.97
2023-01-30T23:12:45.738Z,3.16
2023-01-30T23:15:45.961Z,3.14
2023-01-30T23:18:41.599Z,3.06
2023-01-30T23:21:51.381Z,3.06
2023-01-30T23:24:41.364Z,3.06
2023-01-30T23:27:46.657Z,3.04
2023-01-30T23:30:40.190Z,3.14
2023-01-30T23:33:07.986Z,3.15
2023-01-30T23:35:45.268Z,3.25
2023-01-30T23:38:15.792Z,3.28
2023-01-30T23:44:11.744Z,3.07
2023-01-30T23:47:00.089Z,2.96
2023-01-30T23:49:46.829Z,2.98
2023-01-30T23:52:55.062Z,3.12
2023-01-30T23:59:09.207Z,3.09
